Briefing drone pour Ballan-mire

Rechercher une autre localisation

Conditions de vol :


Nous sommes le : Vendredi 22 octobre 2021
Il est 00:46 UTC (02:46 LT)

Lever de soleil : 06:00 UTC (08:00 LT)
Coucher de soleil : 17:23 UTC (19:23 LT)

Météo

L'essentiel des conditions de vol

VIGILANCE MÉTÉO FRANCE - Indre-et-Loire (37)
Pas de vigilances particulieres
CARTE TEMSI
CARTES DES FRONTS
METAR de LFOT
LFOT 220030Z AUTO VRB02KT CAVOK 07/06 Q1020 NOSIG

Date d'émission: 22/10/2021
Heure d'émission: 00:30 UTC
Vent: Variable 2 KT (4 km/h)
Visibilité horizontale: > 10 km
Plafond : Plafond et visibilité OK (CAVOK)
Température: 7 °C
Point de rosée: 6 °C
Humidité: 93%
Pression (QNH): 1020 hPa
Conditions: Pas de changement dans les 2 heures (NOSIG)
TAF de LFOT
LFOT 211700Z 2118/2218 35005KT 9999 SCT040

Conditions prévues :

Heure d'émission : Bulletin éffectué le 21 à 18:00 UTC
Prévision : Valide du 21 a 18:00 UTC au 22 a 18:00 UTC
Vent : 350° pour 5 KT (9 km/h)
Visibilité : > 10 km
Nuages : Nuages eparts à 4000ft (1219 m)
WEBCAM POUR BALLAN-MIRE

Réglementation

Voler en sécurité

CARTES AERONAUTIQUE 1/500.000
CARTES VAC (LFOT)
SUP AIP




Chargement des AIP...
NOTAM (BALLAN-MIRE + Terrain à proximité / FIR )




Chargement des NOTAMS...
CONTACT PREFECTURE 37
Indre-et-Loire (37) : pref-drones@indre-et-loire.gouv.fr


Avertissement : Les données mises à disposition sont indicatives. Oxygène Drone ne pourra être tenu responsable de dégâts causés aux biens et aux personnes.